Главная страница
METAR-TAF:

METAR-TAF

Аэропорты :

Florø, Норвегия

широта: 61-35N, долгота: 005-02E, высота над уровнем моря: 0 м

Текущие метеонаблюдения

Эта сводка был подготовлена 43 минут назад, в 11:20 UTC
Ветер 12 Узел от северо-западный
Температура 11°C
Влажность 50%
Давление 1010 hPa
Видимость 10 км и более

METAR: ENFL 251120Z AUTO 31012KT 9999NDV // OVC048/// 11/01 Q1010

Время: 14:03 (12:03 UTC)

Прогноз

Эта сводка был подготовлена 19 часа и 3 минут назад, в 17:00 UTC
Прогноз действительный с 24-го 18 UTC до 24-го 22 UTC
Ветер 18 Узел от северо-западный
Видимость 10 км и более
небольшая облачность на высоте 800 фута

TAF: ENFL 241700Z 2418/2422 32018KT 9999 FEW008

Метеонаблюдения и прогнозы для более 4000 аэропортов (сводки METAR и TAF).

Имеющиеся станции представлены на карте желтыми и красными точками.

Чтобы увидеть название станции, наведите на нее мышь.

Затем щелкните, чтобы увидеть метеонаблюдения и метеопрогнозы.

Управление картой: чтобы увеличить масштаб, щелкните зеленые кнопки с черным крестиком; чтобы уменьшить масштаб, щелкните зеленую кнопку с тире; для просмотра соседних карт щелкайте зеленые стрелки.


METAR-TAF: